Nearby METAR Reports

 

KORH - Worcester, Massachusetts, USA
Distance from station: NW 4mi, 7km
Updated: Wed, 22-May-2024 7:54am EDT
Clear
Clear
 Wind from W
Wind: W 9 mph, 15 km/h
Temperature: 70°F, 21°C
Dew Point: 59°F, 15°C
Humidity: 69%
Barometer: 29.98 inHg, 1015.2 hPa
Clouds: Clear
Visibility: 10 miles, 16 km
2024/05/22 11:54 KORH 221154Z 26008KT 10SM CLR 21/15 A2998 RMK AO2 SLP148 T02110150 10211 20172 50010
KBOS - Boston, Massachusetts, USA
Distance from station: ENE 42mi, 68km
Updated: Wed, 22-May-2024 7:54am EDT
Clear
Clear
 Wind from SW
Wind: SW 8 mph, 13 km/h
Temperature: 70°F, 21°C
Dew Point: 61°F, 16°C
Humidity: 73%
Barometer: 29.95 inHg, 1014.2 hPa
Clouds: Clear
Visibility: 10 miles, 16 km
2024/05/22 11:54 KBOS 221154Z 22007KT 10SM CLR 21/16 A2995 RMK AO2 SLP143 T02060156 10206 20161 50014
 
KCQX - Chatham, Massachusetts, USA
Distance from station: SE 102mi, 164km
Updated: Wed, 22-May-2024 7:52am EDT
Clear
Clear
 Wind from WSW
Wind: WSW 9 mph, 15 km/h, Gust: 18 mph, 30 km/h
Temperature: 59°F, 15°C
Dew Point: 54°F, 12°C
Humidity: 82%
Barometer: 30.01 inHg, 1016.3 hPa
Clouds: Clear
Visibility: 10 miles, 16 km
2024/05/22 11:52 KCQX 221152Z AUTO 24008G16KT 10SM CLR 15/12 A3001 RMK AO2 SLP163 T01500122 10156 20128 53019
KMVY - Marthas Vineyard, Massachusetts, USA
Distance from station: SE 84mi, 135km
Updated: Wed, 22-May-2024 7:53am EDT
Clear
Clear
 Wind from WSW
Wind: WSW 8 mph, 13 km/h
Temperature: 66°F, 19°C
Dew Point: 57°F, 14°C
Humidity: 73%
Barometer: 30.01 inHg, 1016.3 hPa
Clouds: Clear
Visibility: 10 miles, 16 km
2024/05/22 11:53 KMVY 221153Z 24007KT 10SM CLR 19/14 A3001 RMK AO2 SLP161 T01890144 10189 20122 51013
 
KPVC - Provincetown, Massachusetts, USA
Distance from station: NNW 85mi, 136km
Updated: Wed, 22-May-2024 7:56am EDT
Clear
Clear
 Wind from SSW
Wind: SSW 12 mph, 19 km/h
Temperature: 61°F, 16°C
Dew Point: 57°F, 14°C
Humidity: 88%
Barometer: 29.99 inHg, 1015.6 hPa
Clouds: Clear
Visibility: 10 miles, 16 km
2024/05/22 11:56 KPVC 221156Z AUTO 21010KT 10SM CLR 16/14 A2999 RMK AO2 SLP155 T01610139 10161 20128 51015
KAQW - Savoy, Massachusetts, USA
Distance from station: NNW 66mi, 106km
Updated: Wed, 22-May-2024 7:52am EDT
Clear
Clear
 Wind from calm
Wind: Calm
Temperature: 70°F, 21°C
Dew Point: 63°F, 17°C
Humidity: 78%
Barometer: 29.96 inHg, 1014.6 hPa
Clouds: Clear
Visibility: 10 miles, 16 km
2024/05/22 11:52 KAQW 221152Z AUTO 00000KT 10SM CLR 21/17 A2996 RMK AO2 SLP142 70005 T02060172 10206 20144 50005
 
KIZG - Fryeburg, Maine, USA
Distance from station: NNE 133mi, 214km
Updated: Wed, 22-May-2024 7:54am EDT
Overcast
Overcast
 Wind from SW
Wind: SW 3 mph, 6 km/h
Temperature: 70°F, 21°C
Dew Point: 61°F, 16°C
Humidity: 73%
Barometer: 29.90 inHg, 1012.5 hPa
Clouds: Overcast
Visibility: 10 miles, 16 km
Cloud details: Overcast 10000 ft
2024/05/22 11:54 KIZG 221154Z AUTO 22003KT 10SM OVC100 21/16 A2990 RMK AO2 SLP123 T02060156 10211 20178 50010
KMWN - Mt Washington, New Hampshire, USA
Distance from station: NNE 146mi, 234km
Updated: Wed, 22-May-2024 7:50am EDT
Fog, Overcast
Fog, Overcast
 Wind from W
Wind: W 47 mph, 76 km/h, Gust: 51 mph, 81 km/h
Temperature: 50°F, 10°C
Wind Chill: 40°F, 4°C
Dew Point: 50°F, 10°C
Humidity: 100%
Summary: Fog
Clouds: Overcast
Visibility: 0 miles, 0 km
Cloud details: Mostly cloudy 0 ft
Mostly cloudy 1000 ft
Overcast 4000 ft
2024/05/22 11:50 KMWN 221150Z 28041G44KT 0SM FG BKN000 BKN010 OVC040 10/10 RMK RAE33 FG BKN000 T00960095 60003 70004 10100 20086
 
KBML - Berlin, New Hampshire, USA
Distance from station: NNE 160mi, 257km
Updated: Wed, 22-May-2024 7:52am EDT
Clear
Clear
 Wind from calm
Wind: Calm
Temperature: 64°F, 18°C
Dew Point: 59°F, 15°C
Humidity: 83%
Barometer: 29.91 inHg, 1012.9 hPa
Clouds: Clear
Visibility: 10 miles, 16 km
2024/05/22 11:52 KBML 221152Z AUTO 00000KT 10SM CLR 18/15 A2991 RMK AO2 SLP125 60000 T01780150 10178 20128 50004